Persian Virtual

Persian Virtual Airlines! DIVERSITY OF QUALITY



 METAR AND TAF INFORMATION
METAR FOR LTAU
ADDS - METARS form results

(1708 UTC 05 July 2020)
Data provider http://aviationweather.gov/metar/data/
 
METAR text: LTAU 051650Z 02010KT 9999 FEW040 29/11 Q1008 NOSIG RMK RWY07 36009G19KT
Conditions at: LTAU (KAYSERI/ERKILET , TR) observed 1650 UTC 05 July 2020
Temperature: 29.0°C (84°F)
Dewpoint: 11.0°C (52°F) [RH = 33%]
Pressure (altimeter): 29.76 inches Hg (1008.0 mb)
Winds: from the NNE (20 degrees) at 12 MPH (10 knots; 5.1 m/s)
Visibility: 6 or more miles (10+ km)
Ceiling: at least 12,000 feet AGL
Clouds: few clouds at 4000 feet AGL
Weather: no significant weather observed at this time

METAR text: LTAU 051620Z 02009KT 350V050 9999 FEW040 30/12 Q1008 NOSIG RMK RWY07 35010KT
Conditions at: LTAU (KAYSERI/ERKILET , TR) observed 1620 UTC 05 July 2020
Temperature: 30.0°C (86°F)
Dewpoint: 12.0°C (54°F) [RH = 33%]
Pressure (altimeter): 29.76 inches Hg (1008.0 mb)
Winds: from the NNE (20 degrees) at 10 MPH (9 knots; 4.6 m/s)
Visibility: 6 or more miles (10+ km)
Ceiling: at least 12,000 feet AGL
Clouds: few clouds at 4000 feet AGL
Weather: no significant weather observed at this time

Forecast for: LTAU (KAYSERI/ERKILET , TR)
Text: TAF LTAU 051640Z 0518/0618 35012KT 9999 FEW040
Forecast period: 1800 UTC 05 July 2020 to 1800 UTC 06 July 2020
Forecast type: FROM: standard forecast or significant change
Winds: from the N (350 degrees) at 14 MPH (12 knots; 6.2 m/s)
Visibility: 6 or more miles 10+ km)
Ceiling: at least 12,000 feet AGL
Clouds: few clouds at 4000 feet AGL
Weather: no significant weather forecast for this period
Text: BECMG 0518/0520 VRB02KT CAVOK
Forecast period: 1800 UTC 05 July 2020 to 0800 UTC 06 July 2020
Forecast type: BECOMING: Conditions expected to become as follows by 2000 UTC 05 July 2020
Winds: variable direction winds at 2 MPH (2 knots; 1.0 m/s)
Visibility: 6 or more miles 10+ km)
Ceiling: unknown
Clouds: missing
Weather: NSW  (no significant weather)
Text: BECMG 0608/0611 FEW040
Forecast period: 0800 to 1800 UTC 06 July 2020
Forecast type: BECOMING: Conditions expected to become as follows by 1100 UTC 06 July 2020
Winds: variable direction winds at 2 MPH (2 knots; 1.0 m/s)
Visibility: 6 or more miles 10+ km)
Ceiling: at least 12,000 feet AGL
Clouds: few clouds at 4000 feet AGL
Weather: NSW  (no significant weather)

 AIRPORT MAP

 RUNWAY INFORMATION
Runway 07 Runway length 9841 ft Runway width 145 ft
Runway elevation 3449 ft Runway displaced threshold 0 ft Runway heading 76
Runway 25 Runway length 9841 ft Runway width 145 ft
Runway elevation 3463 ft Runway displaced threshold 0 ft Runway heading 256

 AIRPORT FREQUENCIES
Type APP Name APP Frequency 122.1 MHZ
Type GND Name GND Frequency 121.95 MHZ
Type TWR Name TWR Frequency 122.1 MHZ

 AIRPORT NEAR NAVIGATION AIDS
Type TACAN Name Kayseri Frequency 116900 KHZ
Type VOR-DME Name Kayseri Frequency 116300 KHZ